Terminal Aerodrome Forecast
Issued by NWS Twin Cities, MN

Home | Current Version | Previous Version | Text Only | Print | Product List | Glossary On
Versions: 1 2 3 4 5 6 7 8 9 10 11 12 13 14 15 16 17 18 19 20 21 22 23 24 25 26
000
FTUS43 KMPX 050254 CCA
TAFMSP
TAF COR
KMSP 050254Z 0503/0606 18007KT 6SM HZ SKC
     FM050600 18006KT 6SM HZ FEW250
     FM051300 18011KT P6SM FEW250
     FM051600 18014G22KT P6SM FEW250
     FM060500 18014G20KT P6SM VCSH SCT050 BKN150=

USA.gov is the U.S. government's official web portal to all federal, state and local government web resources and services.